sensor_id;sensor_type;location;lat;lon;timestamp;P1;durP1;ratioP1;P2;durP2;ratioP2
29500;SDS011;16450;50.288;10.966;2022-10-13T00:02:38;17.10;;;10.70;;
29500;SDS011;16450;50.288;10.966;2022-10-13T00:05:40;17.77;;;10.50;;
29500;SDS011;16450;50.288;10.966;2022-10-13T00:08:42;20.87;;;10.43;;
29500;SDS011;16450;50.288;10.966;2022-10-13T00:11:43;19.80;;;10.97;;
29500;SDS011;16450;50.288;10.966;2022-10-13T00:14:43;19.37;;;10.70;;
29500;SDS011;16450;50.288;10.966;2022-10-13T00:17:44;17.53;;;10.67;;
29500;SDS011;16450;50.288;10.966;2022-10-13T00:20:46;18.97;;;11.07;;
29500;SDS011;16450;50.288;10.966;2022-10-13T00:23:48;17.77;;;10.50;;
29500;SDS011;16450;50.288;10.966;2022-10-13T00:26:50;15.43;;;9.90;;
29500;SDS011;16450;50.288;10.966;2022-10-13T00:29:51;18.30;;;10.73;;
29500;SDS011;16450;50.288;10.966;2022-10-13T00:32:52;18.90;;;10.50;;
29500;SDS011;16450;50.288;10.966;2022-10-13T00:35:52;19.33;;;10.67;;
29500;SDS011;16450;50.288;10.966;2022-10-13T00:38:53;17.97;;;10.93;;
29500;SDS011;16450;50.288;10.966;2022-10-13T00:41:54;17.13;;;10.23;;
29500;SDS011;16450;50.288;10.966;2022-10-13T00:45:18;20.67;;;11.00;;
29500;SDS011;16450;50.288;10.966;2022-10-13T00:48:26;18.20;;;10.40;;
29500;SDS011;16450;50.288;10.966;2022-10-13T00:51:31;18.77;;;10.67;;
29500;SDS011;16450;50.288;10.966;2022-10-13T00:54:33;16.87;;;10.63;;
29500;SDS011;16450;50.288;10.966;2022-10-13T00:57:34;18.20;;;10.90;;
29500;SDS011;16450;50.288;10.966;2022-10-13T01:00:38;17.03;;;10.17;;
29500;SDS011;16450;50.288;10.966;2022-10-13T01:03:38;18.63;;;10.40;;
29500;SDS011;16450;50.288;10.966;2022-10-13T01:06:39;21.67;;;11.93;;
29500;SDS011;16450;50.288;10.966;2022-10-13T01:09:40;19.60;;;10.50;;
29500;SDS011;16450;50.288;10.966;2022-10-13T01:12:42;22.27;;;10.70;;
29500;SDS011;16450;50.288;10.966;2022-10-13T01:16:26;16.67;;;10.80;;
29500;SDS011;16450;50.288;10.966;2022-10-13T01:22:46;25.27;;;11.17;;
29500;SDS011;16450;50.288;10.966;2022-10-13T01:36:42;18.40;;;11.10;;
29500;SDS011;16450;50.288;10.966;2022-10-13T01:40:06;17.47;;;10.90;;
29500;SDS011;16450;50.288;10.966;2022-10-13T01:43:30;18.97;;;10.70;;
29500;SDS011;16450;50.288;10.966;2022-10-13T01:46:36;19.83;;;11.47;;
29500;SDS011;16450;50.288;10.966;2022-10-13T01:49:38;19.03;;;10.70;;
29500;SDS011;16450;50.288;10.966;2022-10-13T01:52:39;18.90;;;11.60;;
29500;SDS011;16450;50.288;10.966;2022-10-13T01:55:51;17.90;;;11.10;;
29500;SDS011;16450;50.288;10.966;2022-10-13T01:58:54;17.63;;;10.90;;
29500;SDS011;16450;50.288;10.966;2022-10-13T02:08:58;19.13;;;10.90;;
29500;SDS011;16450;50.288;10.966;2022-10-13T02:12:15;16.47;;;10.80;;
29500;SDS011;16450;50.288;10.966;2022-10-13T02:15:35;19.13;;;11.03;;
29500;SDS011;16450;50.288;10.966;2022-10-13T02:18:39;17.90;;;11.87;;
29500;SDS011;16450;50.288;10.966;2022-10-13T02:21:41;20.33;;;10.97;;
29500;SDS011;16450;50.288;10.966;2022-10-13T02:24:43;22.43;;;11.50;;
29500;SDS011;16450;50.288;10.966;2022-10-13T02:27:43;18.10;;;10.83;;
29500;SDS011;16450;50.288;10.966;2022-10-13T02:30:44;17.30;;;11.17;;
29500;SDS011;16450;50.288;10.966;2022-10-13T02:33:45;20.20;;;11.77;;
29500;SDS011;16450;50.288;10.966;2022-10-13T02:36:46;17.97;;;11.30;;
29500;SDS011;16450;50.288;10.966;2022-10-13T02:39:47;20.07;;;12.10;;
29500;SDS011;16450;50.288;10.966;2022-10-13T02:42:47;21.37;;;12.50;;
29500;SDS011;16450;50.288;10.966;2022-10-13T02:45:48;21.00;;;11.10;;
29500;SDS011;16450;50.288;10.966;2022-10-13T02:48:48;19.70;;;11.43;;
29500;SDS011;16450;50.288;10.966;2022-10-13T02:51:49;20.33;;;11.50;;
29500;SDS011;16450;50.288;10.966;2022-10-13T02:54:51;19.93;;;11.87;;
29500;SDS011;16450;50.288;10.966;2022-10-13T02:57:51;22.07;;;13.60;;
29500;SDS011;16450;50.288;10.966;2022-10-13T03:00:52;19.93;;;12.13;;
29500;SDS011;16450;50.288;10.966;2022-10-13T03:03:53;21.70;;;11.97;;
29500;SDS011;16450;50.288;10.966;2022-10-13T03:06:53;22.27;;;12.73;;
29500;SDS011;16450;50.288;10.966;2022-10-13T03:09:54;20.47;;;11.97;;
29500;SDS011;16450;50.288;10.966;2022-10-13T03:12:55;17.53;;;12.40;;
29500;SDS011;16450;50.288;10.966;2022-10-13T03:15:56;19.93;;;12.07;;
29500;SDS011;16450;50.288;10.966;2022-10-13T03:18:56;19.13;;;12.00;;
29500;SDS011;16450;50.288;10.966;2022-10-13T03:21:57;22.57;;;11.97;;
29500;SDS011;16450;50.288;10.966;2022-10-13T03:24:57;21.17;;;12.60;;
29500;SDS011;16450;50.288;10.966;2022-10-13T03:27:58;19.43;;;11.97;;
29500;SDS011;16450;50.288;10.966;2022-10-13T03:31:09;18.60;;;11.50;;
29500;SDS011;16450;50.288;10.966;2022-10-13T03:34:11;22.07;;;12.67;;
29500;SDS011;16450;50.288;10.966;2022-10-13T03:37:14;20.33;;;12.53;;
29500;SDS011;16450;50.288;10.966;2022-10-13T03:40:14;21.00;;;12.83;;
29500;SDS011;16450;50.288;10.966;2022-10-13T03:43:15;19.80;;;11.70;;
29500;SDS011;16450;50.288;10.966;2022-10-13T03:46:16;20.10;;;12.40;;
29500;SDS011;16450;50.288;10.966;2022-10-13T03:49:18;25.70;;;13.57;;
29500;SDS011;16450;50.288;10.966;2022-10-13T03:52:18;23.00;;;13.60;;
29500;SDS011;16450;50.288;10.966;2022-10-13T03:55:19;21.60;;;13.70;;
29500;SDS011;16450;50.288;10.966;2022-10-13T03:58:20;21.17;;;13.20;;
29500;SDS011;16450;50.288;10.966;2022-10-13T04:01:23;21.63;;;13.10;;
29500;SDS011;16450;50.288;10.966;2022-10-13T04:04:25;19.27;;;12.87;;
29500;SDS011;16450;50.288;10.966;2022-10-13T04:07:26;21.00;;;13.37;;
29500;SDS011;16450;50.288;10.966;2022-10-13T04:10:26;19.47;;;12.53;;
29500;SDS011;16450;50.288;10.966;2022-10-13T04:13:27;21.50;;;12.23;;
29500;SDS011;16450;50.288;10.966;2022-10-13T04:16:28;18.00;;;11.80;;
29500;SDS011;16450;50.288;10.966;2022-10-13T04:19:30;19.87;;;12.33;;
29500;SDS011;16450;50.288;10.966;2022-10-13T04:22:31;21.80;;;12.70;;
29500;SDS011;16450;50.288;10.966;2022-10-13T04:25:35;21.50;;;12.70;;
29500;SDS011;16450;50.288;10.966;2022-10-13T04:28:36;18.23;;;12.07;;
29500;SDS011;16450;50.288;10.966;2022-10-13T04:31:38;24.80;;;13.27;;
29500;SDS011;16450;50.288;10.966;2022-10-13T04:34:39;21.97;;;12.43;;
29500;SDS011;16450;50.288;10.966;2022-10-13T04:37:39;20.10;;;12.73;;
29500;SDS011;16450;50.288;10.966;2022-10-13T04:40:40;21.43;;;13.63;;
29500;SDS011;16450;50.288;10.966;2022-10-13T04:43:41;26.40;;;13.93;;
29500;SDS011;16450;50.288;10.966;2022-10-13T04:46:41;22.83;;;14.10;;
29500;SDS011;16450;50.288;10.966;2022-10-13T04:49:42;21.27;;;14.20;;
29500;SDS011;16450;50.288;10.966;2022-10-13T04:52:43;22.73;;;14.13;;
29500;SDS011;16450;50.288;10.966;2022-10-13T04:55:43;27.53;;;14.70;;
29500;SDS011;16450;50.288;10.966;2022-10-13T04:58:44;22.93;;;15.10;;
29500;SDS011;16450;50.288;10.966;2022-10-13T05:01:45;27.63;;;14.33;;
29500;SDS011;16450;50.288;10.966;2022-10-13T05:04:46;25.17;;;14.70;;
29500;SDS011;16450;50.288;10.966;2022-10-13T05:07:47;26.03;;;14.80;;
29500;SDS011;16450;50.288;10.966;2022-10-13T05:10:54;26.07;;;14.33;;
29500;SDS011;16450;50.288;10.966;2022-10-13T05:13:56;21.90;;;14.00;;
29500;SDS011;16450;50.288;10.966;2022-10-13T05:16:57;22.63;;;13.13;;
29500;SDS011;16450;50.288;10.966;2022-10-13T05:19:58;22.20;;;13.83;;
29500;SDS011;16450;50.288;10.966;2022-10-13T05:22:59;20.87;;;13.00;;
29500;SDS011;16450;50.288;10.966;2022-10-13T05:26:01;20.00;;;13.80;;
29500;SDS011;16450;50.288;10.966;2022-10-13T05:29:13;22.30;;;13.90;;
29500;SDS011;16450;50.288;10.966;2022-10-13T05:32:14;26.03;;;15.20;;
29500;SDS011;16450;50.288;10.966;2022-10-13T05:35:14;25.10;;;14.27;;
29500;SDS011;16450;50.288;10.966;2022-10-13T05:38:15;25.80;;;13.80;;
29500;SDS011;16450;50.288;10.966;2022-10-13T05:41:16;25.77;;;15.10;;
29500;SDS011;16450;50.288;10.966;2022-10-13T05:44:16;25.17;;;14.17;;
29500;SDS011;16450;50.288;10.966;2022-10-13T05:47:17;24.63;;;14.03;;
29500;SDS011;16450;50.288;10.966;2022-10-13T05:50:17;17.97;;;12.50;;
29500;SDS011;16450;50.288;10.966;2022-10-13T05:53:18;21.57;;;13.40;;
29500;SDS011;16450;50.288;10.966;2022-10-13T05:56:21;20.97;;;12.53;;
29500;SDS011;16450;50.288;10.966;2022-10-13T05:59:25;23.07;;;12.60;;
29500;SDS011;16450;50.288;10.966;2022-10-13T06:02:30;23.90;;;14.03;;
29500;SDS011;16450;50.288;10.966;2022-10-13T06:05:34;23.60;;;14.00;;
29500;SDS011;16450;50.288;10.966;2022-10-13T06:08:35;25.50;;;14.40;;
29500;SDS011;16450;50.288;10.966;2022-10-13T06:11:37;32.07;;;17.07;;
29500;SDS011;16450;50.288;10.966;2022-10-13T06:14:37;29.13;;;16.03;;
29500;SDS011;16450;50.288;10.966;2022-10-13T06:17:38;22.97;;;14.33;;
29500;SDS011;16450;50.288;10.966;2022-10-13T06:20:39;26.90;;;16.23;;
29500;SDS011;16450;50.288;10.966;2022-10-13T06:23:39;42.53;;;20.63;;
29500;SDS011;16450;50.288;10.966;2022-10-13T06:26:40;41.40;;;21.10;;
29500;SDS011;16450;50.288;10.966;2022-10-13T06:29:40;39.30;;;20.50;;
29500;SDS011;16450;50.288;10.966;2022-10-13T06:32:41;40.87;;;19.97;;
29500;SDS011;16450;50.288;10.966;2022-10-13T06:35:42;41.57;;;20.63;;
29500;SDS011;16450;50.288;10.966;2022-10-13T06:38:42;40.93;;;21.17;;
29500;SDS011;16450;50.288;10.966;2022-10-13T06:41:43;44.00;;;22.50;;
29500;SDS011;16450;50.288;10.966;2022-10-13T06:44:43;48.70;;;22.90;;
29500;SDS011;16450;50.288;10.966;2022-10-13T06:47:44;44.43;;;23.50;;
29500;SDS011;16450;50.288;10.966;2022-10-13T06:50:45;52.97;;;26.17;;
29500;SDS011;16450;50.288;10.966;2022-10-13T06:53:46;58.40;;;25.63;;
29500;SDS011;16450;50.288;10.966;2022-10-13T06:56:47;54.23;;;26.67;;
29500;SDS011;16450;50.288;10.966;2022-10-13T06:59:48;58.53;;;26.73;;
29500;SDS011;16450;50.288;10.966;2022-10-13T07:02:49;61.47;;;27.40;;
29500;SDS011;16450;50.288;10.966;2022-10-13T07:05:51;51.70;;;27.03;;
29500;SDS011;16450;50.288;10.966;2022-10-13T07:08:52;49.57;;;27.70;;
29500;SDS011;16450;50.288;10.966;2022-10-13T07:11:52;59.37;;;28.40;;
29500;SDS011;16450;50.288;10.966;2022-10-13T07:14:53;56.37;;;27.37;;
29500;SDS011;16450;50.288;10.966;2022-10-13T07:17:54;53.13;;;26.97;;
29500;SDS011;16450;50.288;10.966;2022-10-13T07:20:56;62.70;;;30.20;;
29500;SDS011;16450;50.288;10.966;2022-10-13T07:23:57;69.33;;;33.87;;
29500;SDS011;16450;50.288;10.966;2022-10-13T07:27:05;78.50;;;35.87;;
29500;SDS011;16450;50.288;10.966;2022-10-13T07:30:06;77.40;;;34.83;;
29500;SDS011;16450;50.288;10.966;2022-10-13T07:33:08;79.77;;;36.13;;
29500;SDS011;16450;50.288;10.966;2022-10-13T07:36:08;67.97;;;32.53;;
29500;SDS011;16450;50.288;10.966;2022-10-13T07:39:10;62.03;;;30.17;;
29500;SDS011;16450;50.288;10.966;2022-10-13T07:42:10;54.27;;;29.27;;
29500;SDS011;16450;50.288;10.966;2022-10-13T07:45:11;64.67;;;30.03;;
29500;SDS011;16450;50.288;10.966;2022-10-13T07:48:12;58.23;;;29.13;;
29500;SDS011;16450;50.288;10.966;2022-10-13T07:51:13;65.90;;;31.97;;
29500;SDS011;16450;50.288;10.966;2022-10-13T07:54:13;60.50;;;30.10;;
29500;SDS011;16450;50.288;10.966;2022-10-13T07:57:15;57.93;;;29.83;;
29500;SDS011;16450;50.288;10.966;2022-10-13T08:00:16;57.50;;;29.80;;
29500;SDS011;16450;50.288;10.966;2022-10-13T08:03:16;60.73;;;29.80;;
29500;SDS011;16450;50.288;10.966;2022-10-13T08:06:17;53.67;;;27.90;;
29500;SDS011;16450;50.288;10.966;2022-10-13T08:09:18;52.77;;;27.80;;
29500;SDS011;16450;50.288;10.966;2022-10-13T08:12:18;52.20;;;26.70;;
29500;SDS011;16450;50.288;10.966;2022-10-13T08:15:19;58.23;;;28.93;;
29500;SDS011;16450;50.288;10.966;2022-10-13T08:18:20;56.90;;;28.17;;
29500;SDS011;16450;50.288;10.966;2022-10-13T08:21:20;53.67;;;28.20;;
29500;SDS011;16450;50.288;10.966;2022-10-13T08:24:21;59.30;;;29.70;;
29500;SDS011;16450;50.288;10.966;2022-10-13T08:27:22;52.10;;;26.37;;
29500;SDS011;16450;50.288;10.966;2022-10-13T08:30:24;54.73;;;27.43;;
29500;SDS011;16450;50.288;10.966;2022-10-13T08:33:25;50.20;;;26.67;;
29500;SDS011;16450;50.288;10.966;2022-10-13T08:36:26;52.30;;;27.43;;
29500;SDS011;16450;50.288;10.966;2022-10-13T08:39:27;55.03;;;27.17;;
29500;SDS011;16450;50.288;10.966;2022-10-13T08:42:29;54.20;;;27.43;;
29500;SDS011;16450;50.288;10.966;2022-10-13T08:45:29;53.30;;;28.13;;
29500;SDS011;16450;50.288;10.966;2022-10-13T08:48:31;57.00;;;27.07;;
29500;SDS011;16450;50.288;10.966;2022-10-13T08:51:35;64.97;;;29.97;;
29500;SDS011;16450;50.288;10.966;2022-10-13T08:54:35;56.93;;;27.43;;
29500;SDS011;16450;50.288;10.966;2022-10-13T08:57:37;57.23;;;28.70;;
29500;SDS011;16450;50.288;10.966;2022-10-13T09:00:38;54.17;;;26.30;;
29500;SDS011;16450;50.288;10.966;2022-10-13T09:03:55;65.97;;;28.07;;
29500;SDS011;16450;50.288;10.966;2022-10-13T09:07:12;52.13;;;26.77;;
29500;SDS011;16450;50.288;10.966;2022-10-13T09:10:17;63.43;;;28.63;;
29500;SDS011;16450;50.288;10.966;2022-10-13T09:13:18;55.43;;;27.23;;
29500;SDS011;16450;50.288;10.966;2022-10-13T09:19:40;65.03;;;29.33;;
29500;SDS011;16450;50.288;10.966;2022-10-13T09:22:41;61.43;;;28.87;;
29500;SDS011;16450;50.288;10.966;2022-10-13T09:25:43;56.70;;;26.80;;
29500;SDS011;16450;50.288;10.966;2022-10-13T09:28:47;56.50;;;26.37;;
29500;SDS011;16450;50.288;10.966;2022-10-13T09:31:48;61.97;;;28.13;;
29500;SDS011;16450;50.288;10.966;2022-10-13T09:34:50;63.63;;;27.87;;
29500;SDS011;16450;50.288;10.966;2022-10-13T09:38:04;58.00;;;27.43;;
29500;SDS011;16450;50.288;10.966;2022-10-13T09:44:10;59.03;;;28.03;;
29500;SDS011;16450;50.288;10.966;2022-10-13T09:47:18;55.90;;;26.83;;
29500;SDS011;16450;50.288;10.966;2022-10-13T09:50:28;59.90;;;28.13;;
29500;SDS011;16450;50.288;10.966;2022-10-13T09:53:36;61.97;;;27.80;;
29500;SDS011;16450;50.288;10.966;2022-10-13T09:56:40;61.10;;;28.30;;
29500;SDS011;16450;50.288;10.966;2022-10-13T09:59:48;61.70;;;28.73;;
29500;SDS011;16450;50.288;10.966;2022-10-13T10:03:22;59.30;;;28.33;;
29500;SDS011;16450;50.288;10.966;2022-10-13T10:06:28;55.70;;;27.13;;
29500;SDS011;16450;50.288;10.966;2022-10-13T10:09:33;55.03;;;26.50;;
29500;SDS011;16450;50.288;10.966;2022-10-13T10:12:45;55.60;;;27.17;;
29500;SDS011;16450;50.288;10.966;2022-10-13T10:19:01;47.47;;;24.10;;
29500;SDS011;16450;50.288;10.966;2022-10-13T10:22:28;52.83;;;25.73;;
29500;SDS011;16450;50.288;10.966;2022-10-13T10:32:12;53.37;;;24.20;;
29500;SDS011;16450;50.288;10.966;2022-10-13T10:39:42;54.53;;;25.47;;
29500;SDS011;16450;50.288;10.966;2022-10-13T10:45:51;55.80;;;25.97;;
29500;SDS011;16450;50.288;10.966;2022-10-13T10:49:41;52.43;;;24.50;;
29500;SDS011;16450;50.288;10.966;2022-10-13T10:52:26;53.90;;;25.77;;
29500;SDS011;16450;50.288;10.966;2022-10-13T10:55:53;46.07;;;23.60;;
29500;SDS011;16450;50.288;10.966;2022-10-13T11:02:29;44.50;;;21.33;;
29500;SDS011;16450;50.288;10.966;2022-10-13T11:09:03;44.07;;;21.73;;
29500;SDS011;16450;50.288;10.966;2022-10-13T11:12:19;46.30;;;22.90;;
29500;SDS011;16450;50.288;10.966;2022-10-13T11:24:55;45.27;;;21.37;;
29500;SDS011;16450;50.288;10.966;2022-10-13T11:27:56;40.67;;;21.03;;
29500;SDS011;16450;50.288;10.966;2022-10-13T11:31:21;42.40;;;20.27;;
29500;SDS011;16450;50.288;10.966;2022-10-13T11:34:30;34.50;;;18.83;;
29500;SDS011;16450;50.288;10.966;2022-10-13T11:41:11;37.40;;;19.33;;
29500;SDS011;16450;50.288;10.966;2022-10-13T11:44:20;37.50;;;19.97;;
29500;SDS011;16450;50.288;10.966;2022-10-13T11:47:51;38.13;;;19.13;;
29500;SDS011;16450;50.288;10.966;2022-10-13T11:57:26;32.63;;;18.50;;
29500;SDS011;16450;50.288;10.966;2022-10-13T12:00:28;31.23;;;17.87;;
29500;SDS011;16450;50.288;10.966;2022-10-13T12:03:30;34.93;;;16.83;;
29500;SDS011;16450;50.288;10.966;2022-10-13T12:06:33;32.93;;;17.37;;
29500;SDS011;16450;50.288;10.966;2022-10-13T12:09:47;33.20;;;18.67;;
29500;SDS011;16450;50.288;10.966;2022-10-13T12:12:49;34.17;;;17.77;;
29500;SDS011;16450;50.288;10.966;2022-10-13T12:16:03;32.80;;;17.90;;
29500;SDS011;16450;50.288;10.966;2022-10-13T12:19:17;34.83;;;18.87;;
29500;SDS011;16450;50.288;10.966;2022-10-13T12:22:21;32.37;;;17.83;;
29500;SDS011;16450;50.288;10.966;2022-10-13T12:25:25;30.97;;;17.47;;
29500;SDS011;16450;50.288;10.966;2022-10-13T12:31:54;32.03;;;17.97;;
29500;SDS011;16450;50.288;10.966;2022-10-13T12:35:09;31.03;;;17.10;;
29500;SDS011;16450;50.288;10.966;2022-10-13T12:38:17;32.80;;;16.97;;
29500;SDS011;16450;50.288;10.966;2022-10-13T12:41:21;34.13;;;16.83;;
29500;SDS011;16450;50.288;10.966;2022-10-13T12:44:29;32.33;;;17.23;;
29500;SDS011;16450;50.288;10.966;2022-10-13T12:50:35;28.80;;;15.97;;
29500;SDS011;16450;50.288;10.966;2022-10-13T12:53:36;29.10;;;15.37;;
29500;SDS011;16450;50.288;10.966;2022-10-13T12:56:40;26.03;;;15.53;;
29500;SDS011;16450;50.288;10.966;2022-10-13T12:59:42;26.20;;;16.20;;
29500;SDS011;16450;50.288;10.966;2022-10-13T13:02:46;25.93;;;15.90;;
29500;SDS011;16450;50.288;10.966;2022-10-13T13:06:05;27.53;;;15.30;;
29500;SDS011;16450;50.288;10.966;2022-10-13T13:09:20;30.10;;;17.37;;
29500;SDS011;16450;50.288;10.966;2022-10-13T13:12:22;27.77;;;15.80;;
29500;SDS011;16450;50.288;10.966;2022-10-13T13:15:31;31.47;;;16.37;;
29500;SDS011;16450;50.288;10.966;2022-10-13T13:18:32;30.60;;;16.67;;
29500;SDS011;16450;50.288;10.966;2022-10-13T13:21:38;25.27;;;16.37;;
29500;SDS011;16450;50.288;10.966;2022-10-13T13:24:39;28.83;;;16.27;;
29500;SDS011;16450;50.288;10.966;2022-10-13T13:27:39;28.67;;;16.00;;
29500;SDS011;16450;50.288;10.966;2022-10-13T13:30:40;31.87;;;16.73;;
29500;SDS011;16450;50.288;10.966;2022-10-13T13:33:42;29.83;;;17.80;;
29500;SDS011;16450;50.288;10.966;2022-10-13T13:36:42;30.00;;;17.30;;
29500;SDS011;16450;50.288;10.966;2022-10-13T13:39:43;31.73;;;16.40;;
29500;SDS011;16450;50.288;10.966;2022-10-13T13:42:44;26.60;;;16.23;;
29500;SDS011;16450;50.288;10.966;2022-10-13T13:45:44;28.73;;;16.90;;
29500;SDS011;16450;50.288;10.966;2022-10-13T13:48:45;28.17;;;17.27;;
29500;SDS011;16450;50.288;10.966;2022-10-13T13:51:45;28.03;;;16.70;;
29500;SDS011;16450;50.288;10.966;2022-10-13T13:54:46;27.23;;;15.57;;
29500;SDS011;16450;50.288;10.966;2022-10-13T13:57:48;29.53;;;15.80;;
29500;SDS011;16450;50.288;10.966;2022-10-13T14:00:48;28.60;;;15.27;;
29500;SDS011;16450;50.288;10.966;2022-10-13T14:03:49;29.00;;;15.67;;
29500;SDS011;16450;50.288;10.966;2022-10-13T14:06:50;26.30;;;15.67;;
29500;SDS011;16450;50.288;10.966;2022-10-13T14:09:51;31.60;;;16.10;;
29500;SDS011;16450;50.288;10.966;2022-10-13T14:12:52;29.43;;;15.97;;
29500;SDS011;16450;50.288;10.966;2022-10-13T14:15:56;30.90;;;17.03;;
29500;SDS011;16450;50.288;10.966;2022-10-13T14:18:57;27.77;;;15.97;;
29500;SDS011;16450;50.288;10.966;2022-10-13T14:21:58;26.93;;;15.67;;
29500;SDS011;16450;50.288;10.966;2022-10-13T14:25:00;32.13;;;16.07;;
29500;SDS011;16450;50.288;10.966;2022-10-13T14:28:01;29.70;;;15.70;;
29500;SDS011;16450;50.288;10.966;2022-10-13T14:31:04;27.33;;;16.27;;
29500;SDS011;16450;50.288;10.966;2022-10-13T14:34:05;32.50;;;17.70;;
29500;SDS011;16450;50.288;10.966;2022-10-13T14:37:06;31.90;;;17.10;;
29500;SDS011;16450;50.288;10.966;2022-10-13T14:40:06;31.33;;;17.53;;
29500;SDS011;16450;50.288;10.966;2022-10-13T14:43:07;30.67;;;17.97;;
29500;SDS011;16450;50.288;10.966;2022-10-13T14:46:08;34.43;;;18.43;;
29500;SDS011;16450;50.288;10.966;2022-10-13T14:49:09;33.27;;;18.40;;
29500;SDS011;16450;50.288;10.966;2022-10-13T14:52:10;33.37;;;17.97;;
29500;SDS011;16450;50.288;10.966;2022-10-13T14:55:10;31.13;;;18.20;;
29500;SDS011;16450;50.288;10.966;2022-10-13T14:58:11;30.33;;;18.07;;
29500;SDS011;16450;50.288;10.966;2022-10-13T15:01:12;33.97;;;18.23;;
29500;SDS011;16450;50.288;10.966;2022-10-13T15:04:13;41.17;;;23.60;;
29500;SDS011;16450;50.288;10.966;2022-10-13T15:07:14;40.70;;;21.60;;
29500;SDS011;16450;50.288;10.966;2022-10-13T15:10:14;35.77;;;19.33;;
29500;SDS011;16450;50.288;10.966;2022-10-13T15:13:15;37.07;;;20.60;;
29500;SDS011;16450;50.288;10.966;2022-10-13T15:16:20;32.53;;;19.40;;
29500;SDS011;16450;50.288;10.966;2022-10-13T15:19:23;32.50;;;18.67;;
29500;SDS011;16450;50.288;10.966;2022-10-13T15:22:23;31.50;;;18.30;;
29500;SDS011;16450;50.288;10.966;2022-10-13T15:25:24;31.20;;;17.27;;
29500;SDS011;16450;50.288;10.966;2022-10-13T15:28:26;29.60;;;17.80;;
29500;SDS011;16450;50.288;10.966;2022-10-13T15:31:29;30.03;;;17.23;;
29500;SDS011;16450;50.288;10.966;2022-10-13T15:34:30;29.03;;;15.93;;
29500;SDS011;16450;50.288;10.966;2022-10-13T15:37:30;29.53;;;16.57;;
29500;SDS011;16450;50.288;10.966;2022-10-13T15:40:31;30.60;;;18.93;;
29500;SDS011;16450;50.288;10.966;2022-10-13T15:43:32;28.63;;;17.40;;
29500;SDS011;16450;50.288;10.966;2022-10-13T15:46:33;32.17;;;18.50;;
29500;SDS011;16450;50.288;10.966;2022-10-13T15:49:34;31.87;;;17.30;;
29500;SDS011;16450;50.288;10.966;2022-10-13T15:52:38;29.83;;;17.13;;
29500;SDS011;16450;50.288;10.966;2022-10-13T15:55:40;31.90;;;18.03;;
29500;SDS011;16450;50.288;10.966;2022-10-13T15:58:40;34.30;;;20.40;;
29500;SDS011;16450;50.288;10.966;2022-10-13T16:01:41;40.77;;;22.73;;
29500;SDS011;16450;50.288;10.966;2022-10-13T16:04:42;40.23;;;21.67;;
29500;SDS011;16450;50.288;10.966;2022-10-13T16:07:43;41.20;;;20.83;;
29500;SDS011;16450;50.288;10.966;2022-10-13T16:10:43;35.03;;;19.17;;
29500;SDS011;16450;50.288;10.966;2022-10-13T16:13:48;31.27;;;18.80;;
29500;SDS011;16450;50.288;10.966;2022-10-13T16:16:50;33.27;;;18.40;;
29500;SDS011;16450;50.288;10.966;2022-10-13T16:19:51;30.70;;;18.00;;
29500;SDS011;16450;50.288;10.966;2022-10-13T16:22:52;35.37;;;21.00;;
29500;SDS011;16450;50.288;10.966;2022-10-13T16:25:53;35.23;;;19.20;;
29500;SDS011;16450;50.288;10.966;2022-10-13T16:28:53;27.67;;;18.17;;
29500;SDS011;16450;50.288;10.966;2022-10-13T16:31:55;31.83;;;18.50;;
29500;SDS011;16450;50.288;10.966;2022-10-13T16:34:55;30.80;;;17.70;;
29500;SDS011;16450;50.288;10.966;2022-10-13T16:37:56;28.90;;;16.27;;
29500;SDS011;16450;50.288;10.966;2022-10-13T16:40:56;30.87;;;17.90;;
29500;SDS011;16450;50.288;10.966;2022-10-13T16:43:57;28.50;;;17.20;;
29500;SDS011;16450;50.288;10.966;2022-10-13T16:46:58;28.60;;;16.73;;
29500;SDS011;16450;50.288;10.966;2022-10-13T16:50:04;33.67;;;17.20;;
29500;SDS011;16450;50.288;10.966;2022-10-13T16:53:08;31.37;;;18.90;;
29500;SDS011;16450;50.288;10.966;2022-10-13T16:56:10;31.33;;;19.77;;
29500;SDS011;16450;50.288;10.966;2022-10-13T16:59:10;31.43;;;18.60;;
29500;SDS011;16450;50.288;10.966;2022-10-13T17:02:12;31.47;;;20.27;;
29500;SDS011;16450;50.288;10.966;2022-10-13T17:05:13;38.37;;;24.30;;
29500;SDS011;16450;50.288;10.966;2022-10-13T17:08:14;43.23;;;25.90;;
29500;SDS011;16450;50.288;10.966;2022-10-13T17:11:16;42.53;;;25.03;;
29500;SDS011;16450;50.288;10.966;2022-10-13T17:14:19;53.33;;;29.40;;
29500;SDS011;16450;50.288;10.966;2022-10-13T17:17:19;39.67;;;22.80;;
29500;SDS011;16450;50.288;10.966;2022-10-13T17:20:20;35.40;;;21.53;;
29500;SDS011;16450;50.288;10.966;2022-10-13T17:23:21;31.50;;;19.53;;
29500;SDS011;16450;50.288;10.966;2022-10-13T17:26:23;30.67;;;18.53;;
29500;SDS011;16450;50.288;10.966;2022-10-13T17:29:24;31.70;;;19.00;;
29500;SDS011;16450;50.288;10.966;2022-10-13T17:32:24;30.53;;;18.50;;
29500;SDS011;16450;50.288;10.966;2022-10-13T17:35:25;34.60;;;19.20;;
29500;SDS011;16450;50.288;10.966;2022-10-13T17:38:26;33.67;;;18.97;;
29500;SDS011;16450;50.288;10.966;2022-10-13T17:41:29;33.23;;;19.77;;
29500;SDS011;16450;50.288;10.966;2022-10-13T17:44:29;33.60;;;19.17;;
29500;SDS011;16450;50.288;10.966;2022-10-13T17:47:30;27.27;;;17.37;;
29500;SDS011;16450;50.288;10.966;2022-10-13T17:50:33;30.30;;;18.33;;
29500;SDS011;16450;50.288;10.966;2022-10-13T17:53:34;35.53;;;20.87;;
29500;SDS011;16450;50.288;10.966;2022-10-13T17:56:36;34.23;;;20.00;;
29500;SDS011;16450;50.288;10.966;2022-10-13T17:59:37;30.80;;;18.27;;
29500;SDS011;16450;50.288;10.966;2022-10-13T18:02:37;33.50;;;19.70;;
29500;SDS011;16450;50.288;10.966;2022-10-13T18:05:40;30.37;;;18.70;;
29500;SDS011;16450;50.288;10.966;2022-10-13T18:08:41;30.60;;;18.10;;
29500;SDS011;16450;50.288;10.966;2022-10-13T18:11:42;34.13;;;18.33;;
29500;SDS011;16450;50.288;10.966;2022-10-13T18:14:44;35.07;;;20.27;;
29500;SDS011;16450;50.288;10.966;2022-10-13T18:17:45;32.17;;;19.87;;
29500;SDS011;16450;50.288;10.966;2022-10-13T18:20:46;31.57;;;19.23;;
29500;SDS011;16450;50.288;10.966;2022-10-13T18:23:46;39.30;;;20.57;;
29500;SDS011;16450;50.288;10.966;2022-10-13T18:26:47;30.90;;;19.13;;
29500;SDS011;16450;50.288;10.966;2022-10-13T18:29:48;34.03;;;19.43;;
29500;SDS011;16450;50.288;10.966;2022-10-13T18:32:49;36.30;;;22.13;;
29500;SDS011;16450;50.288;10.966;2022-10-13T18:35:49;42.37;;;25.00;;
29500;SDS011;16450;50.288;10.966;2022-10-13T18:38:51;35.60;;;22.57;;
29500;SDS011;16450;50.288;10.966;2022-10-13T18:41:53;34.20;;;21.40;;
29500;SDS011;16450;50.288;10.966;2022-10-13T18:44:55;35.03;;;21.27;;
29500;SDS011;16450;50.288;10.966;2022-10-13T18:47:56;36.30;;;21.13;;
29500;SDS011;16450;50.288;10.966;2022-10-13T18:51:01;33.33;;;20.30;;
29500;SDS011;16450;50.288;10.966;2022-10-13T18:54:09;40.00;;;23.00;;